sensor_id;sensor_type;location;lat;lon;timestamp;P1;durP1;ratioP1;P2;durP2;ratioP2
23113;SDS011;11726;50.122;8.832;2024-01-11T00:00:30;37.72;;;11.68;;
23113;SDS011;11726;50.122;8.832;2024-01-11T00:02:57;34.70;;;10.85;;
23113;SDS011;11726;50.122;8.832;2024-01-11T00:05:24;34.53;;;12.00;;
23113;SDS011;11726;50.122;8.832;2024-01-11T00:07:51;33.50;;;11.73;;
23113;SDS011;11726;50.122;8.832;2024-01-11T00:10:18;39.33;;;14.43;;
23113;SDS011;11726;50.122;8.832;2024-01-11T00:12:44;32.00;;;12.43;;
23113;SDS011;11726;50.122;8.832;2024-01-11T00:15:11;34.70;;;13.45;;
23113;SDS011;11726;50.122;8.832;2024-01-11T00:17:38;33.60;;;12.25;;
23113;SDS011;11726;50.122;8.832;2024-01-11T00:20:05;38.42;;;12.85;;
23113;SDS011;11726;50.122;8.832;2024-01-11T00:22:33;37.85;;;12.85;;
23113;SDS011;11726;50.122;8.832;2024-01-11T00:24:59;35.95;;;11.63;;
23113;SDS011;11726;50.122;8.832;2024-01-11T00:27:26;42.15;;;12.48;;
23113;SDS011;11726;50.122;8.832;2024-01-11T00:29:53;34.20;;;11.50;;
23113;SDS011;11726;50.122;8.832;2024-01-11T00:32:20;34.13;;;11.55;;
23113;SDS011;11726;50.122;8.832;2024-01-11T00:34:47;41.75;;;13.63;;
23113;SDS011;11726;50.122;8.832;2024-01-11T00:37:14;32.53;;;11.07;;
23113;SDS011;11726;50.122;8.832;2024-01-11T00:39:44;35.63;;;11.93;;
23113;SDS011;11726;50.122;8.832;2024-01-11T00:42:11;35.83;;;12.80;;
23113;SDS011;11726;50.122;8.832;2024-01-11T00:44:38;33.22;;;11.25;;
23113;SDS011;11726;50.122;8.832;2024-01-11T00:47:04;39.58;;;12.93;;
23113;SDS011;11726;50.122;8.832;2024-01-11T00:49:31;40.13;;;11.40;;
23113;SDS011;11726;50.122;8.832;2024-01-11T00:51:58;32.45;;;11.60;;
23113;SDS011;11726;50.122;8.832;2024-01-11T00:54:25;40.78;;;13.10;;
23113;SDS011;11726;50.122;8.832;2024-01-11T00:56:51;27.02;;;9.93;;
23113;SDS011;11726;50.122;8.832;2024-01-11T00:59:18;35.33;;;13.18;;
23113;SDS011;11726;50.122;8.832;2024-01-11T01:01:48;32.28;;;12.18;;
23113;SDS011;11726;50.122;8.832;2024-01-11T01:04:15;38.17;;;11.23;;
23113;SDS011;11726;50.122;8.832;2024-01-11T01:06:43;32.90;;;11.68;;
23113;SDS011;11726;50.122;8.832;2024-01-11T01:09:10;35.13;;;11.82;;
23113;SDS011;11726;50.122;8.832;2024-01-11T01:11:36;59.65;;;13.57;;
23113;SDS011;11726;50.122;8.832;2024-01-11T01:14:03;38.60;;;12.05;;
23113;SDS011;11726;50.122;8.832;2024-01-11T01:16:30;37.17;;;11.90;;
23113;SDS011;11726;50.122;8.832;2024-01-11T01:18:57;31.17;;;10.57;;
23113;SDS011;11726;50.122;8.832;2024-01-11T01:21:24;32.30;;;11.95;;
23113;SDS011;11726;50.122;8.832;2024-01-11T01:23:51;37.00;;;12.00;;
23113;SDS011;11726;50.122;8.832;2024-01-11T01:26:17;36.55;;;11.82;;
23113;SDS011;11726;50.122;8.832;2024-01-11T01:28:44;39.97;;;12.77;;
23113;SDS011;11726;50.122;8.832;2024-01-11T01:31:11;33.42;;;11.90;;
23113;SDS011;11726;50.122;8.832;2024-01-11T01:33:39;37.45;;;13.30;;
23113;SDS011;11726;50.122;8.832;2024-01-11T01:36:12;30.30;;;11.02;;
23113;SDS011;11726;50.122;8.832;2024-01-11T01:38:39;40.80;;;13.07;;
23113;SDS011;11726;50.122;8.832;2024-01-11T01:41:05;34.67;;;11.15;;
23113;SDS011;11726;50.122;8.832;2024-01-11T01:43:32;38.15;;;11.57;;
23113;SDS011;11726;50.122;8.832;2024-01-11T01:45:59;34.65;;;11.27;;
23113;SDS011;11726;50.122;8.832;2024-01-11T01:48:26;33.42;;;10.70;;
23113;SDS011;11726;50.122;8.832;2024-01-11T01:50:54;37.22;;;12.07;;
23113;SDS011;11726;50.122;8.832;2024-01-11T01:53:21;43.08;;;12.43;;
23113;SDS011;11726;50.122;8.832;2024-01-11T01:55:49;38.33;;;13.07;;
23113;SDS011;11726;50.122;8.832;2024-01-11T01:58:18;40.63;;;12.50;;
23113;SDS011;11726;50.122;8.832;2024-01-11T02:00:46;34.88;;;11.65;;
23113;SDS011;11726;50.122;8.832;2024-01-11T02:03:15;38.17;;;12.88;;
23113;SDS011;11726;50.122;8.832;2024-01-11T02:05:42;33.97;;;11.32;;
23113;SDS011;11726;50.122;8.832;2024-01-11T02:08:11;44.28;;;12.30;;
23113;SDS011;11726;50.122;8.832;2024-01-11T02:10:43;33.87;;;11.93;;
23113;SDS011;11726;50.122;8.832;2024-01-11T02:13:12;33.17;;;12.00;;
23113;SDS011;11726;50.122;8.832;2024-01-11T02:15:40;32.05;;;11.05;;
23113;SDS011;11726;50.122;8.832;2024-01-11T02:18:07;28.25;;;10.38;;
23113;SDS011;11726;50.122;8.832;2024-01-11T02:20:34;36.80;;;12.23;;
23113;SDS011;11726;50.122;8.832;2024-01-11T02:23:01;36.65;;;12.05;;
23113;SDS011;11726;50.122;8.832;2024-01-11T02:25:32;33.92;;;12.30;;
23113;SDS011;11726;50.122;8.832;2024-01-11T02:27:59;32.80;;;11.98;;
23113;SDS011;11726;50.122;8.832;2024-01-11T02:30:25;43.40;;;12.32;;
23113;SDS011;11726;50.122;8.832;2024-01-11T02:32:52;38.92;;;12.07;;
23113;SDS011;11726;50.122;8.832;2024-01-11T02:35:20;34.55;;;11.30;;
23113;SDS011;11726;50.122;8.832;2024-01-11T02:37:48;36.22;;;11.82;;
23113;SDS011;11726;50.122;8.832;2024-01-11T02:40:14;40.70;;;12.52;;
23113;SDS011;11726;50.122;8.832;2024-01-11T02:42:41;27.40;;;10.45;;
23113;SDS011;11726;50.122;8.832;2024-01-11T02:45:08;35.83;;;11.73;;
23113;SDS011;11726;50.122;8.832;2024-01-11T02:47:37;36.30;;;13.38;;
23113;SDS011;11726;50.122;8.832;2024-01-11T02:50:04;36.08;;;11.52;;
23113;SDS011;11726;50.122;8.832;2024-01-11T02:52:33;32.80;;;11.48;;
23113;SDS011;11726;50.122;8.832;2024-01-11T02:55:00;34.13;;;12.23;;
23113;SDS011;11726;50.122;8.832;2024-01-11T02:57:27;34.53;;;12.60;;
23113;SDS011;11726;50.122;8.832;2024-01-11T02:59:54;41.80;;;13.25;;
23113;SDS011;11726;50.122;8.832;2024-01-11T03:02:20;42.20;;;12.80;;
23113;SDS011;11726;50.122;8.832;2024-01-11T03:04:47;37.17;;;11.40;;
23113;SDS011;11726;50.122;8.832;2024-01-11T03:07:14;37.78;;;13.07;;
23113;SDS011;11726;50.122;8.832;2024-01-11T03:09:41;40.38;;;12.65;;
23113;SDS011;11726;50.122;8.832;2024-01-11T03:12:07;37.38;;;11.32;;
23113;SDS011;11726;50.122;8.832;2024-01-11T03:14:34;35.63;;;12.05;;
23113;SDS011;11726;50.122;8.832;2024-01-11T03:17:01;40.75;;;11.98;;
23113;SDS011;11726;50.122;8.832;2024-01-11T03:19:28;32.42;;;11.80;;
23113;SDS011;11726;50.122;8.832;2024-01-11T03:21:54;37.60;;;12.85;;
23113;SDS011;11726;50.122;8.832;2024-01-11T03:24:21;37.72;;;12.68;;
23113;SDS011;11726;50.122;8.832;2024-01-11T03:26:48;38.58;;;11.60;;
23113;SDS011;11726;50.122;8.832;2024-01-11T03:29:14;38.58;;;12.70;;
23113;SDS011;11726;50.122;8.832;2024-01-11T03:31:41;38.38;;;12.77;;
23113;SDS011;11726;50.122;8.832;2024-01-11T03:34:10;39.97;;;12.93;;
23113;SDS011;11726;50.122;8.832;2024-01-11T03:36:37;34.30;;;10.65;;
23113;SDS011;11726;50.122;8.832;2024-01-11T03:39:04;32.83;;;12.00;;
23113;SDS011;11726;50.122;8.832;2024-01-11T03:41:30;38.58;;;11.73;;
23113;SDS011;11726;50.122;8.832;2024-01-11T03:43:57;29.23;;;11.10;;
23113;SDS011;11726;50.122;8.832;2024-01-11T03:46:24;41.13;;;13.35;;
23113;SDS011;11726;50.122;8.832;2024-01-11T03:48:51;32.63;;;10.80;;
23113;SDS011;11726;50.122;8.832;2024-01-11T03:51:18;38.17;;;12.38;;
23113;SDS011;11726;50.122;8.832;2024-01-11T03:53:44;39.00;;;11.30;;
23113;SDS011;11726;50.122;8.832;2024-01-11T03:56:11;36.22;;;11.35;;
23113;SDS011;11726;50.122;8.832;2024-01-11T03:58:38;29.33;;;10.98;;
23113;SDS011;11726;50.122;8.832;2024-01-11T04:01:07;37.20;;;11.50;;
23113;SDS011;11726;50.122;8.832;2024-01-11T04:03:36;32.17;;;10.65;;
23113;SDS011;11726;50.122;8.832;2024-01-11T04:06:03;32.25;;;11.63;;
23113;SDS011;11726;50.122;8.832;2024-01-11T04:08:30;34.42;;;12.18;;
23113;SDS011;11726;50.122;8.832;2024-01-11T04:10:57;33.45;;;12.77;;
23113;SDS011;11726;50.122;8.832;2024-01-11T04:13:24;39.35;;;12.32;;
23113;SDS011;11726;50.122;8.832;2024-01-11T04:15:51;38.85;;;11.80;;
23113;SDS011;11726;50.122;8.832;2024-01-11T04:18:17;34.22;;;11.77;;
23113;SDS011;11726;50.122;8.832;2024-01-11T04:20:44;30.85;;;11.13;;
23113;SDS011;11726;50.122;8.832;2024-01-11T04:23:11;39.00;;;11.38;;
23113;SDS011;11726;50.122;8.832;2024-01-11T04:25:37;44.08;;;12.05;;
23113;SDS011;11726;50.122;8.832;2024-01-11T04:28:04;44.97;;;12.27;;
23113;SDS011;11726;50.122;8.832;2024-01-11T04:30:31;33.38;;;12.25;;
23113;SDS011;11726;50.122;8.832;2024-01-11T04:32:58;36.95;;;12.35;;
23113;SDS011;11726;50.122;8.832;2024-01-11T04:35:25;40.70;;;12.30;;
23113;SDS011;11726;50.122;8.832;2024-01-11T04:37:52;39.17;;;12.52;;
23113;SDS011;11726;50.122;8.832;2024-01-11T04:40:18;30.65;;;11.68;;
23113;SDS011;11726;50.122;8.832;2024-01-11T04:42:45;33.90;;;12.10;;
23113;SDS011;11726;50.122;8.832;2024-01-11T04:45:12;38.42;;;11.95;;
23113;SDS011;11726;50.122;8.832;2024-01-11T04:47:38;33.00;;;11.18;;
23113;SDS011;11726;50.122;8.832;2024-01-11T04:50:05;39.33;;;11.98;;
23113;SDS011;11726;50.122;8.832;2024-01-11T04:52:33;33.30;;;11.60;;
23113;SDS011;11726;50.122;8.832;2024-01-11T04:54:59;34.42;;;11.20;;
23113;SDS011;11726;50.122;8.832;2024-01-11T04:57:26;34.67;;;13.20;;
23113;SDS011;11726;50.122;8.832;2024-01-11T04:59:53;34.13;;;12.38;;
23113;SDS011;11726;50.122;8.832;2024-01-11T05:02:20;44.47;;;13.88;;
23113;SDS011;11726;50.122;8.832;2024-01-11T05:04:47;44.97;;;13.68;;
23113;SDS011;11726;50.122;8.832;2024-01-11T05:07:14;41.75;;;12.40;;
23113;SDS011;11726;50.122;8.832;2024-01-11T05:09:41;34.67;;;12.68;;
23113;SDS011;11726;50.122;8.832;2024-01-11T05:12:08;37.15;;;12.75;;
23113;SDS011;11726;50.122;8.832;2024-01-11T05:14:35;39.95;;;13.20;;
23113;SDS011;11726;50.122;8.832;2024-01-11T05:17:01;44.35;;;12.68;;
23113;SDS011;11726;50.122;8.832;2024-01-11T05:19:28;40.17;;;12.18;;
23113;SDS011;11726;50.122;8.832;2024-01-11T05:21:55;40.22;;;12.82;;
23113;SDS011;11726;50.122;8.832;2024-01-11T05:24:22;39.03;;;13.35;;
23113;SDS011;11726;50.122;8.832;2024-01-11T05:26:49;42.30;;;13.43;;
23113;SDS011;11726;50.122;8.832;2024-01-11T05:29:16;42.58;;;12.70;;
23113;SDS011;11726;50.122;8.832;2024-01-11T05:31:43;39.65;;;13.77;;
23113;SDS011;11726;50.122;8.832;2024-01-11T05:34:10;46.75;;;14.98;;
23113;SDS011;11726;50.122;8.832;2024-01-11T05:36:39;45.10;;;14.18;;
23113;SDS011;11726;50.122;8.832;2024-01-11T05:39:05;46.35;;;13.43;;
23113;SDS011;11726;50.122;8.832;2024-01-11T05:41:32;39.58;;;13.00;;
23113;SDS011;11726;50.122;8.832;2024-01-11T05:43:59;46.42;;;13.82;;
23113;SDS011;11726;50.122;8.832;2024-01-11T05:46:25;45.55;;;13.00;;
23113;SDS011;11726;50.122;8.832;2024-01-11T05:48:52;51.35;;;14.88;;
23113;SDS011;11726;50.122;8.832;2024-01-11T05:51:19;42.88;;;15.38;;
23113;SDS011;11726;50.122;8.832;2024-01-11T05:53:46;49.22;;;15.50;;
23113;SDS011;11726;50.122;8.832;2024-01-11T05:56:12;54.65;;;16.00;;
23113;SDS011;11726;50.122;8.832;2024-01-11T05:58:39;48.40;;;15.40;;
23113;SDS011;11726;50.122;8.832;2024-01-11T06:01:06;52.85;;;14.10;;
23113;SDS011;11726;50.122;8.832;2024-01-11T06:03:33;42.75;;;14.77;;
23113;SDS011;11726;50.122;8.832;2024-01-11T06:06:02;41.42;;;14.07;;
23113;SDS011;11726;50.122;8.832;2024-01-11T06:08:29;44.63;;;14.60;;
23113;SDS011;11726;50.122;8.832;2024-01-11T06:10:57;44.65;;;13.13;;
23113;SDS011;11726;50.122;8.832;2024-01-11T06:13:25;51.75;;;15.30;;
23113;SDS011;11726;50.122;8.832;2024-01-11T06:15:52;46.00;;;15.25;;
23113;SDS011;11726;50.122;8.832;2024-01-11T06:18:19;53.80;;;16.08;;
23113;SDS011;11726;50.122;8.832;2024-01-11T06:20:45;49.20;;;15.07;;
23113;SDS011;11726;50.122;8.832;2024-01-11T06:23:12;42.15;;;14.95;;
23113;SDS011;11726;50.122;8.832;2024-01-11T06:25:39;53.20;;;15.50;;
23113;SDS011;11726;50.122;8.832;2024-01-11T06:28:06;41.33;;;14.10;;
23113;SDS011;11726;50.122;8.832;2024-01-11T06:30:33;48.63;;;15.40;;
23113;SDS011;11726;50.122;8.832;2024-01-11T06:32:59;45.03;;;15.38;;
23113;SDS011;11726;50.122;8.832;2024-01-11T06:35:26;48.17;;;15.13;;
23113;SDS011;11726;50.122;8.832;2024-01-11T06:37:53;46.20;;;13.82;;
23113;SDS011;11726;50.122;8.832;2024-01-11T06:40:20;40.15;;;13.95;;
23113;SDS011;11726;50.122;8.832;2024-01-11T06:42:47;53.75;;;17.05;;
23113;SDS011;11726;50.122;8.832;2024-01-11T06:45:13;41.13;;;14.43;;
23113;SDS011;11726;50.122;8.832;2024-01-11T06:47:40;46.75;;;14.90;;
23113;SDS011;11726;50.122;8.832;2024-01-11T06:50:07;50.17;;;15.13;;
23113;SDS011;11726;50.122;8.832;2024-01-11T06:52:35;52.75;;;14.20;;
23113;SDS011;11726;50.122;8.832;2024-01-11T06:55:01;48.58;;;13.63;;
23113;SDS011;11726;50.122;8.832;2024-01-11T06:57:28;57.53;;;16.80;;
23113;SDS011;11726;50.122;8.832;2024-01-11T06:59:55;51.92;;;14.70;;
23113;SDS011;11726;50.122;8.832;2024-01-11T07:02:22;43.78;;;14.70;;
23113;SDS011;11726;50.122;8.832;2024-01-11T07:04:49;44.95;;;14.18;;
23113;SDS011;11726;50.122;8.832;2024-01-11T07:07:16;49.15;;;14.85;;
23113;SDS011;11726;50.122;8.832;2024-01-11T07:09:43;49.28;;;14.77;;
23113;SDS011;11726;50.122;8.832;2024-01-11T07:12:10;54.55;;;16.17;;
23113;SDS011;11726;50.122;8.832;2024-01-11T07:14:37;54.33;;;15.63;;
23113;SDS011;11726;50.122;8.832;2024-01-11T07:17:04;54.05;;;14.25;;
23113;SDS011;11726;50.122;8.832;2024-01-11T07:19:31;44.17;;;16.02;;
23113;SDS011;11726;50.122;8.832;2024-01-11T07:21:57;48.95;;;17.73;;
23113;SDS011;11726;50.122;8.832;2024-01-11T07:24:24;45.50;;;15.63;;
23113;SDS011;11726;50.122;8.832;2024-01-11T07:26:51;40.60;;;14.63;;
23113;SDS011;11726;50.122;8.832;2024-01-11T07:29:18;48.88;;;15.88;;
23113;SDS011;11726;50.122;8.832;2024-01-11T07:31:45;45.42;;;14.02;;
23113;SDS011;11726;50.122;8.832;2024-01-11T07:34:12;45.30;;;14.73;;
23113;SDS011;11726;50.122;8.832;2024-01-11T07:36:39;44.47;;;16.02;;
23113;SDS011;11726;50.122;8.832;2024-01-11T07:39:05;40.90;;;13.27;;
23113;SDS011;11726;50.122;8.832;2024-01-11T07:41:32;43.60;;;13.90;;
23113;SDS011;11726;50.122;8.832;2024-01-11T07:43:59;49.95;;;14.38;;
23113;SDS011;11726;50.122;8.832;2024-01-11T07:46:26;46.63;;;14.20;;
23113;SDS011;11726;50.122;8.832;2024-01-11T07:49:04;40.95;;;12.77;;
23113;SDS011;11726;50.122;8.832;2024-01-11T07:51:32;44.25;;;14.23;;
23113;SDS011;11726;50.122;8.832;2024-01-11T07:54:00;43.72;;;12.75;;
23113;SDS011;11726;50.122;8.832;2024-01-11T07:56:27;49.17;;;14.68;;
23113;SDS011;11726;50.122;8.832;2024-01-11T07:58:54;46.53;;;13.73;;
23113;SDS011;11726;50.122;8.832;2024-01-11T08:01:21;45.22;;;15.30;;
23113;SDS011;11726;50.122;8.832;2024-01-11T08:03:47;46.17;;;14.10;;
23113;SDS011;11726;50.122;8.832;2024-01-11T08:06:14;51.83;;;17.05;;
23113;SDS011;11726;50.122;8.832;2024-01-11T08:08:41;40.42;;;15.02;;
23113;SDS011;11726;50.122;8.832;2024-01-11T08:11:09;48.63;;;14.25;;
23113;SDS011;11726;50.122;8.832;2024-01-11T08:13:36;50.47;;;14.32;;
23113;SDS011;11726;50.122;8.832;2024-01-11T08:16:04;47.38;;;14.48;;
23113;SDS011;11726;50.122;8.832;2024-01-11T08:18:33;48.00;;;15.50;;
23113;SDS011;11726;50.122;8.832;2024-01-11T08:21:00;53.05;;;15.50;;
23113;SDS011;11726;50.122;8.832;2024-01-11T08:23:27;42.17;;;15.05;;
23113;SDS011;11726;50.122;8.832;2024-01-11T08:25:53;40.05;;;13.68;;
23113;SDS011;11726;50.122;8.832;2024-01-11T08:28:20;54.05;;;15.98;;
23113;SDS011;11726;50.122;8.832;2024-01-11T08:30:47;43.30;;;14.95;;
23113;SDS011;11726;50.122;8.832;2024-01-11T08:33:14;43.88;;;14.07;;
23113;SDS011;11726;50.122;8.832;2024-01-11T08:35:41;49.00;;;15.30;;
23113;SDS011;11726;50.122;8.832;2024-01-11T08:38:08;43.05;;;14.90;;
23113;SDS011;11726;50.122;8.832;2024-01-11T08:40:35;45.40;;;16.67;;
23113;SDS011;11726;50.122;8.832;2024-01-11T08:43:02;49.28;;;15.07;;
23113;SDS011;11726;50.122;8.832;2024-01-11T08:45:29;50.33;;;16.45;;
23113;SDS011;11726;50.122;8.832;2024-01-11T08:47:57;36.97;;;14.45;;
23113;SDS011;11726;50.122;8.832;2024-01-11T08:50:24;49.88;;;15.43;;
23113;SDS011;11726;50.122;8.832;2024-01-11T08:52:54;45.28;;;14.02;;
23113;SDS011;11726;50.122;8.832;2024-01-11T08:55:22;48.35;;;15.63;;
23113;SDS011;11726;50.122;8.832;2024-01-11T08:57:49;43.90;;;15.85;;
23113;SDS011;11726;50.122;8.832;2024-01-11T09:00:15;45.85;;;14.48;;
23113;SDS011;11726;50.122;8.832;2024-01-11T09:02:44;48.00;;;14.90;;
23113;SDS011;11726;50.122;8.832;2024-01-11T09:05:13;42.33;;;12.68;;
23113;SDS011;11726;50.122;8.832;2024-01-11T09:07:41;41.85;;;14.23;;
23113;SDS011;11726;50.122;8.832;2024-01-11T09:10:08;48.30;;;15.30;;
23113;SDS011;11726;50.122;8.832;2024-01-11T09:12:35;36.58;;;14.00;;
23113;SDS011;11726;50.122;8.832;2024-01-11T09:15:02;42.25;;;14.63;;
23113;SDS011;11726;50.122;8.832;2024-01-11T09:17:29;48.80;;;14.48;;
23113;SDS011;11726;50.122;8.832;2024-01-11T09:19:57;48.63;;;15.00;;
23113;SDS011;11726;50.122;8.832;2024-01-11T09:22:23;46.35;;;14.45;;
23113;SDS011;11726;50.122;8.832;2024-01-11T09:24:51;50.25;;;14.98;;
23113;SDS011;11726;50.122;8.832;2024-01-11T09:27:18;44.17;;;15.50;;
23113;SDS011;11726;50.122;8.832;2024-01-11T09:29:45;47.33;;;14.75;;
23113;SDS011;11726;50.122;8.832;2024-01-11T09:32:12;45.88;;;14.77;;
23113;SDS011;11726;50.122;8.832;2024-01-11T09:34:39;46.17;;;14.50;;
23113;SDS011;11726;50.122;8.832;2024-01-11T09:37:05;49.38;;;15.02;;
23113;SDS011;11726;50.122;8.832;2024-01-11T09:39:32;39.20;;;14.07;;
23113;SDS011;11726;50.122;8.832;2024-01-11T09:42:08;46.67;;;15.38;;
23113;SDS011;11726;50.122;8.832;2024-01-11T09:44:36;49.38;;;15.93;;
23113;SDS011;11726;50.122;8.832;2024-01-11T09:47:08;43.50;;;15.43;;
23113;SDS011;11726;50.122;8.832;2024-01-11T09:49:40;48.33;;;14.43;;
23113;SDS011;11726;50.122;8.832;2024-01-11T09:52:09;43.53;;;14.93;;
23113;SDS011;11726;50.122;8.832;2024-01-11T09:54:39;47.45;;;14.88;;
23113;SDS011;11726;50.122;8.832;2024-01-11T09:57:06;46.45;;;14.88;;
23113;SDS011;11726;50.122;8.832;2024-01-11T09:59:35;46.42;;;14.65;;
23113;SDS011;11726;50.122;8.832;2024-01-11T10:02:03;43.55;;;15.10;;
23113;SDS011;11726;50.122;8.832;2024-01-11T10:04:31;43.47;;;15.52;;
23113;SDS011;11726;50.122;8.832;2024-01-11T10:06:58;47.58;;;15.38;;
23113;SDS011;11726;50.122;8.832;2024-01-11T10:09:26;47.20;;;14.85;;
23113;SDS011;11726;50.122;8.832;2024-01-11T10:11:53;45.67;;;16.83;;
23113;SDS011;11726;50.122;8.832;2024-01-11T10:14:20;45.90;;;15.20;;
23113;SDS011;11726;50.122;8.832;2024-01-11T10:16:47;42.75;;;16.95;;
23113;SDS011;11726;50.122;8.832;2024-01-11T10:19:14;54.05;;;15.85;;
23113;SDS011;11726;50.122;8.832;2024-01-11T10:21:43;38.50;;;13.75;;
23113;SDS011;11726;50.122;8.832;2024-01-11T10:24:09;56.67;;;16.30;;
23113;SDS011;11726;50.122;8.832;2024-01-11T10:26:36;44.80;;;15.52;;
23113;SDS011;11726;50.122;8.832;2024-01-11T10:29:03;49.90;;;16.95;;
23113;SDS011;11726;50.122;8.832;2024-01-11T10:31:32;43.40;;;14.50;;
23113;SDS011;11726;50.122;8.832;2024-01-11T10:34:00;38.85;;;14.65;;
23113;SDS011;11726;50.122;8.832;2024-01-11T10:36:30;40.20;;;14.93;;
23113;SDS011;11726;50.122;8.832;2024-01-11T10:38:57;52.67;;;16.20;;
23113;SDS011;11726;50.122;8.832;2024-01-11T10:41:27;51.33;;;17.42;;
23113;SDS011;11726;50.122;8.832;2024-01-11T10:43:58;38.88;;;13.82;;
23113;SDS011;11726;50.122;8.832;2024-01-11T10:46:27;46.90;;;14.13;;
23113;SDS011;11726;50.122;8.832;2024-01-11T10:48:56;44.88;;;15.13;;
23113;SDS011;11726;50.122;8.832;2024-01-11T10:51:25;39.70;;;15.52;;
23113;SDS011;11726;50.122;8.832;2024-01-11T10:53:54;45.47;;;15.07;;
23113;SDS011;11726;50.122;8.832;2024-01-11T10:56:22;41.45;;;15.45;;
23113;SDS011;11726;50.122;8.832;2024-01-11T10:58:50;43.45;;;13.93;;
23113;SDS011;11726;50.122;8.832;2024-01-11T11:01:17;53.75;;;16.55;;
23113;SDS011;11726;50.122;8.832;2024-01-11T11:03:46;40.00;;;14.57;;
23113;SDS011;11726;50.122;8.832;2024-01-11T11:06:17;46.72;;;15.30;;
23113;SDS011;11726;50.122;8.832;2024-01-11T11:08:47;39.85;;;14.32;;
23113;SDS011;11726;50.122;8.832;2024-01-11T11:11:15;52.38;;;16.02;;
23113;SDS011;11726;50.122;8.832;2024-01-11T11:13:46;48.97;;;14.88;;
23113;SDS011;11726;50.122;8.832;2024-01-11T11:16:15;47.30;;;16.48;;
23113;SDS011;11726;50.122;8.832;2024-01-11T11:18:42;40.25;;;14.68;;
23113;SDS011;11726;50.122;8.832;2024-01-11T11:21:09;42.92;;;14.48;;
23113;SDS011;11726;50.122;8.832;2024-01-11T11:23:39;40.58;;;13.07;;
23113;SDS011;11726;50.122;8.832;2024-01-11T11:26:06;39.95;;;13.75;;
23113;SDS011;11726;50.122;8.832;2024-01-11T11:28:36;38.47;;;13.65;;
23113;SDS011;11726;50.122;8.832;2024-01-11T11:31:03;39.67;;;14.00;;
23113;SDS011;11726;50.122;8.832;2024-01-11T11:33:29;42.08;;;14.43;;
23113;SDS011;11726;50.122;8.832;2024-01-11T11:35:59;40.92;;;12.82;;
23113;SDS011;11726;50.122;8.832;2024-01-11T11:38:29;42.25;;;14.23;;
23113;SDS011;11726;50.122;8.832;2024-01-11T11:40:58;40.55;;;14.35;;
23113;SDS011;11726;50.122;8.832;2024-01-11T11:43:26;36.97;;;12.73;;
23113;SDS011;11726;50.122;8.832;2024-01-11T11:45:53;42.58;;;13.60;;
23113;SDS011;11726;50.122;8.832;2024-01-11T11:51:11;39.55;;;12.93;;
23113;SDS011;11726;50.122;8.832;2024-01-11T11:53:42;36.83;;;12.82;;
23113;SDS011;11726;50.122;8.832;2024-01-11T11:56:10;36.47;;;14.30;;
23113;SDS011;11726;50.122;8.832;2024-01-11T11:58:37;34.83;;;12.68;;
23113;SDS011;11726;50.122;8.832;2024-01-11T12:01:05;37.63;;;13.65;;
23113;SDS011;11726;50.122;8.832;2024-01-11T12:03:34;38.53;;;14.10;;
23113;SDS011;11726;50.122;8.832;2024-01-11T12:06:07;40.95;;;13.07;;
23113;SDS011;11726;50.122;8.832;2024-01-11T12:08:36;38.92;;;13.48;;
23113;SDS011;11726;50.122;8.832;2024-01-11T12:11:04;34.75;;;13.77;;
23113;SDS011;11726;50.122;8.832;2024-01-11T12:13:32;35.92;;;13.35;;
23113;SDS011;11726;50.122;8.832;2024-01-11T12:15:59;34.25;;;12.13;;
23113;SDS011;11726;50.122;8.832;2024-01-11T12:18:26;35.95;;;13.45;;
23113;SDS011;11726;50.122;8.832;2024-01-11T12:20:53;36.55;;;12.50;;
23113;SDS011;11726;50.122;8.832;2024-01-11T12:23:20;39.53;;;13.85;;
23113;SDS011;11726;50.122;8.832;2024-01-11T12:25:47;36.47;;;12.65;;
23113;SDS011;11726;50.122;8.832;2024-01-11T12:28:14;42.60;;;15.48;;
23113;SDS011;11726;50.122;8.832;2024-01-11T12:30:41;43.75;;;13.90;;
23113;SDS011;11726;50.122;8.832;2024-01-11T12:33:08;39.60;;;13.07;;
23113;SDS011;11726;50.122;8.832;2024-01-11T12:35:36;46.55;;;13.52;;
23113;SDS011;11726;50.122;8.832;2024-01-11T12:38:04;33.95;;;13.23;;
23113;SDS011;11726;50.122;8.832;2024-01-11T12:40:41;33.33;;;12.65;;
23113;SDS011;11726;50.122;8.832;2024-01-11T12:43:08;40.00;;;14.40;;
23113;SDS011;11726;50.122;8.832;2024-01-11T12:45:37;34.60;;;12.27;;
23113;SDS011;11726;50.122;8.832;2024-01-11T12:48:06;33.97;;;12.80;;
23113;SDS011;11726;50.122;8.832;2024-01-11T12:50:35;40.97;;;14.38;;
23113;SDS011;11726;50.122;8.832;2024-01-11T12:55:35;34.35;;;12.93;;
23113;SDS011;11726;50.122;8.832;2024-01-11T12:58:20;38.90;;;13.43;;
23113;SDS011;11726;50.122;8.832;2024-01-11T13:00:48;40.30;;;12.57;;
23113;SDS011;11726;50.122;8.832;2024-01-11T13:03:15;35.90;;;12.98;;
23113;SDS011;11726;50.122;8.832;2024-01-11T13:05:42;36.17;;;13.45;;
23113;SDS011;11726;50.122;8.832;2024-01-11T13:08:09;36.67;;;13.02;;
23113;SDS011;11726;50.122;8.832;2024-01-11T13:10:36;39.17;;;14.73;;
23113;SDS011;11726;50.122;8.832;2024-01-11T13:13:04;35.30;;;12.68;;
23113;SDS011;11726;50.122;8.832;2024-01-11T13:15:35;29.63;;;11.68;;
23113;SDS011;11726;50.122;8.832;2024-01-11T13:18:05;29.67;;;11.13;;
23113;SDS011;11726;50.122;8.832;2024-01-11T13:20:32;38.65;;;13.82;;
23113;SDS011;11726;50.122;8.832;2024-01-11T13:23:12;33.67;;;12.75;;
23113;SDS011;11726;50.122;8.832;2024-01-11T13:25:43;31.15;;;13.20;;
23113;SDS011;11726;50.122;8.832;2024-01-11T13:28:11;29.92;;;11.77;;
23113;SDS011;11726;50.122;8.832;2024-01-11T13:30:38;30.35;;;11.40;;
23113;SDS011;11726;50.122;8.832;2024-01-11T13:33:06;38.00;;;12.70;;
23113;SDS011;11726;50.122;8.832;2024-01-11T13:35:38;37.63;;;12.85;;
23113;SDS011;11726;50.122;8.832;2024-01-11T13:38:06;28.58;;;12.32;;
23113;SDS011;11726;50.122;8.832;2024-01-11T13:40:33;39.90;;;13.40;;
23113;SDS011;11726;50.122;8.832;2024-01-11T13:43:00;35.95;;;12.98;;
23113;SDS011;11726;50.122;8.832;2024-01-11T13:45:29;32.83;;;11.48;;
23113;SDS011;11726;50.122;8.832;2024-01-11T13:47:56;36.63;;;12.80;;
23113;SDS011;11726;50.122;8.832;2024-01-11T13:50:23;37.45;;;13.38;;
23113;SDS011;11726;50.122;8.832;2024-01-11T13:52:51;25.85;;;11.38;;
23113;SDS011;11726;50.122;8.832;2024-01-11T13:55:18;35.10;;;13.55;;
23113;SDS011;11726;50.122;8.832;2024-01-11T13:57:48;29.15;;;11.05;;
23113;SDS011;11726;50.122;8.832;2024-01-11T14:00:18;32.55;;;12.45;;
23113;SDS011;11726;50.122;8.832;2024-01-11T14:02:46;33.42;;;12.50;;
23113;SDS011;11726;50.122;8.832;2024-01-11T14:05:14;32.22;;;12.82;;
23113;SDS011;11726;50.122;8.832;2024-01-11T14:07:43;40.47;;;13.82;;
23113;SDS011;11726;50.122;8.832;2024-01-11T14:10:11;36.38;;;12.77;;
23113;SDS011;11726;50.122;8.832;2024-01-11T14:12:38;34.28;;;12.75;;
23113;SDS011;11726;50.122;8.832;2024-01-11T14:15:06;37.40;;;12.60;;
23113;SDS011;11726;50.122;8.832;2024-01-11T14:17:38;38.40;;;13.73;;
23113;SDS011;11726;50.122;8.832;2024-01-11T14:20:06;37.35;;;14.43;;
23113;SDS011;11726;50.122;8.832;2024-01-11T14:22:40;31.73;;;13.55;;
23113;SDS011;11726;50.122;8.832;2024-01-11T14:25:08;37.95;;;12.85;;
23113;SDS011;11726;50.122;8.832;2024-01-11T14:27:38;31.85;;;12.88;;